Time;durP1;ratioP1;P1;durP2;ratioP2;P2;SDS_P1;SDS_P2;PMS_P1;PMS_P2;Temp;Humidity;BMP_temperature;BMP_pressure;BME280_temperature;BME280_humidity;BME280_pressure;Samples;Min_cycle;Max_cycle;Signal;HPM_P1;HPM_P2
2024/01/10 00:00:02;;;;;;;;;;;-2.10;99.90;;;;;;5065439;28;19940;-79
2024/01/10 00:02:28;;;;;;;;;;;-2.20;99.90;;;;;;5067632;28;19915;-79
2024/01/10 00:07:38;;;;;;;;;;;-2.20;99.90;;;;;;5070524;28;19985;-79
2024/01/10 00:10:04;;;;;;;;;;;-2.20;99.90;;;;;;5053119;28;19972;-79
2024/01/10 00:12:36;;;;;;;;;;;-2.10;99.90;;;;;;5071317;28;19916;-79
2024/01/10 00:15:11;;;;;;;;;;;-2.20;99.90;;;;;;5068803;28;19920;-79
2024/01/10 00:17:39;;;;;;;;;;;-2.20;99.90;;;;;;5060979;28;19909;-79
2024/01/10 00:20:06;;;;;;;;;;;-2.20;99.90;;;;;;5070241;28;19963;-79
2024/01/10 00:22:37;;;;;;;;;;;-2.10;99.90;;;;;;5069246;28;19909;-78
2024/01/10 00:28:25;;;;;;;;;;;-2.10;99.90;;;;;;4988673;28;19910;-79
2024/01/10 00:30:51;;;;;;;;;;;-2.10;99.90;;;;;;4971749;28;19910;-79
2024/01/10 00:33:17;;;;;;;;;;;-2.00;99.90;;;;;;5025882;28;20288;-78
2024/01/10 00:35:42;;;;;;;;;;;-2.00;99.90;;;;;;5068089;28;20010;-78
2024/01/10 00:38:08;;;;;;;;;;;-2.00;99.90;;;;;;5069519;28;19951;-79
2024/01/10 00:40:34;;;;;;;;;;;-2.00;99.90;;;;;;5070495;28;19916;-78
2024/01/10 00:42:59;;;;;;;;;;;-1.90;99.90;;;;;;5070361;28;20439;-79
2024/01/10 00:45:27;;;;;;;;;;;-1.90;99.90;;;;;;5069304;28;20002;-78
2024/01/10 00:47:52;;;;;;;;;;;-1.90;99.90;;;;;;5070561;28;20280;-79
2024/01/10 00:50:18;;;;;;;;;;;-2.00;99.90;;;;;;5051763;28;19916;-78
2024/01/10 00:52:44;;;;;;;;;;;-2.00;99.90;;;;;;5047675;28;19916;-78
2024/01/10 00:55:10;;;;;;;;;;;-1.90;99.90;;;;;;5061388;28;19920;-79
2024/01/10 00:57:37;;;;;;;;;;;-2.00;99.90;;;;;;5054108;28;19958;-79
2024/01/10 01:00:06;;;;;;;;;;;-1.90;99.90;;;;;;5067424;28;19912;-78
2024/01/10 01:02:32;;;;;;;;;;;-1.90;99.90;;;;;;5066542;28;20314;-78
2024/01/10 01:04:58;;;;;;;;;;;-2.00;99.90;;;;;;5070465;28;20000;-78
2024/01/10 01:07:23;;;;;;;;;;;-1.80;99.90;;;;;;5052666;28;19912;-78
2024/01/10 01:09:49;;;;;;;;;;;-1.80;99.90;;;;;;5047329;28;20289;-78
2024/01/10 01:12:14;;;;;;;;;;;-1.90;99.90;;;;;;5054161;28;19908;-79
2024/01/10 01:14:40;;;;;;;;;;;-1.90;99.90;;;;;;5068858;28;20000;-79
2024/01/10 01:17:07;;;;;;;;;;;-1.90;99.90;;;;;;5068689;28;19919;-78
2024/01/10 01:19:33;;;;;;;;;;;-2.00;99.90;;;;;;5052064;28;19924;-78
2024/01/10 01:21:58;;;;;;;;;;;-2.00;99.90;;;;;;5051824;28;19946;-78
2024/01/10 01:24:24;;;;;;;;;;;-2.00;99.90;;;;;;5069850;28;19912;-78
2024/01/10 01:26:50;;;;;;;;;;;-1.90;99.90;;;;;;5065012;28;19978;-78
2024/01/10 01:29:15;;;;;;;;;;;-2.00;99.90;;;;;;5069241;28;19912;-79
2024/01/10 01:31:41;;;;;;;;;;;-2.00;99.90;;;;;;5069334;28;19909;-79
2024/01/10 01:34:06;;;;;;;;;;;-2.00;99.90;;;;;;5068912;28;20353;-79
2024/01/10 01:36:39;;;;;;;;;;;-1.90;99.90;;;;;;5069204;28;19938;-78
2024/01/10 01:39:05;;;;;;;;;;;-2.00;99.90;;;;;;5069667;28;19912;-79
2024/01/10 01:41:31;;;;;;;;;;;-2.00;99.90;;;;;;5068081;28;20007;-78
2024/01/10 01:44:39;;;;;;;;;;;-2.10;99.90;;;;;;5051370;28;20027;-78
2024/01/10 01:46:46;;;;;;;;;;;-2.10;99.90;;;;;;5059922;28;19994;-79
2024/01/10 01:49:12;;;;;;;;;;;-2.20;99.90;;;;;;5069422;28;19918;-79
2024/01/10 01:51:43;;;;;;;;;;;-2.10;99.90;;;;;;5069339;28;20003;-78
2024/01/10 01:54:09;;;;;;;;;;;-2.10;99.90;;;;;;5066118;28;19920;-78
2024/01/10 01:56:38;;;;;;;;;;;-2.10;99.90;;;;;;5069961;28;20278;-78
2024/01/10 01:59:08;;;;;;;;;;;-2.10;99.90;;;;;;5067133;28;19987;-78
2024/01/10 02:01:42;;;;;;;;;;;-2.10;99.90;;;;;;5068168;28;19912;-78
2024/01/10 02:04:08;;;;;;;;;;;-2.20;99.90;;;;;;5070162;28;19913;-78
2024/01/10 02:06:34;;;;;;;;;;;-2.20;99.90;;;;;;5074201;28;20353;-78
2024/01/10 02:08:59;;;;;;;;;;;-2.20;99.90;;;;;;5063114;28;20371;-78
2024/01/10 02:11:25;;;;;;;;;;;-2.20;99.90;;;;;;5062244;28;20361;-78
2024/01/10 02:13:57;;;;;;;;;;;-2.20;99.90;;;;;;5054726;28;19912;-79
2024/01/10 02:16:22;;;;;;;;;;;-2.30;99.90;;;;;;5053322;28;20365;-78
2024/01/10 02:18:49;;;;;;;;;;;-2.20;99.90;;;;;;5055261;28;19919;-78
2024/01/10 02:21:15;;;;;;;;;;;-2.30;99.90;;;;;;5054979;28;19951;-78
2024/01/10 02:23:40;;;;;;;;;;;-2.30;99.90;;;;;;5070663;28;19958;-78
2024/01/10 02:26:06;;;;;;;;;;;-2.20;99.90;;;;;;5072681;28;19915;-78
2024/01/10 02:28:32;;;;;;;;;;;-2.30;99.90;;;;;;5054989;28;20376;-78
2024/01/10 02:30:57;;;;;;;;;;;-2.50;99.90;;;;;;5070778;28;19916;-78
2024/01/10 02:33:23;;;;;;;;;;;-2.40;99.90;;;;;;5072974;28;20357;-78
2024/01/10 02:35:48;;;;;;;;;;;-2.30;99.90;;;;;;5072314;28;20015;-78
2024/01/10 02:38:14;;;;;;;;;;;-2.60;99.90;;;;;;5072997;28;19912;-78
2024/01/10 02:40:39;;;;;;;;;;;-2.50;99.90;;;;;;5073292;28;19904;-78
2024/01/10 02:43:10;;;;;;;;;;;-2.30;99.90;;;;;;5063609;28;19959;-78
2024/01/10 02:45:36;;;;;;;;;;;-2.20;99.90;;;;;;5053794;28;19909;-78
2024/01/10 02:48:01;;;;;;;;;;;-2.20;99.90;;;;;;5072523;28;19912;-78
2024/01/10 02:50:29;;;;;;;;;;;-2.20;99.90;;;;;;5070938;28;19951;-78
2024/01/10 02:52:55;;;;;;;;;;;-2.20;99.90;;;;;;5072032;28;20257;-78
2024/01/10 02:55:20;;;;;;;;;;;-2.10;99.90;;;;;;5054528;28;20387;-78
2024/01/10 02:57:46;;;;;;;;;;;-2.30;99.90;;;;;;5071773;28;19912;-78
2024/01/10 03:00:12;;;;;;;;;;;-2.50;99.90;;;;;;5054025;28;20053;-78
2024/01/10 03:02:37;;;;;;;;;;;-2.40;99.90;;;;;;5071701;28;19959;-78
2024/01/10 03:05:03;;;;;;;;;;;-2.20;99.90;;;;;;5064241;28;19912;-78
2024/01/10 03:07:28;;;;;;;;;;;-2.20;99.90;;;;;;5072363;28;20420;-78
2024/01/10 03:09:54;;;;;;;;;;;-2.20;99.90;;;;;;5072107;28;19924;-78
2024/01/10 03:12:19;;;;;;;;;;;-2.20;99.90;;;;;;5071328;28;19924;-79
2024/01/10 03:15:25;;;;;;;;;;;-2.10;99.90;;;;;;5053577;28;19932;-78
2024/01/10 03:17:50;;;;;;;;;;;-2.10;99.90;;;;;;4972019;28;19961;-79
2024/01/10 03:20:16;;;;;;;;;;;-2.10;99.90;;;;;;4974326;28;20365;-78
2024/01/10 03:22:41;;;;;;;;;;;-2.20;99.90;;;;;;5027355;28;19920;-78
2024/01/10 03:25:07;;;;;;;;;;;-2.20;99.90;;;;;;5072230;28;19909;-79
2024/01/10 03:27:33;;;;;;;;;;;-2.30;99.90;;;;;;5053279;28;19931;-79
2024/01/10 03:29:58;;;;;;;;;;;-2.30;99.90;;;;;;5066062;28;19912;-78
2024/01/10 03:32:24;;;;;;;;;;;-2.20;99.90;;;;;;5071736;28;20373;-78
2024/01/10 03:34:51;;;;;;;;;;;-2.20;99.90;;;;;;5051275;28;20288;-79
2024/01/10 03:37:16;;;;;;;;;;;-2.20;99.90;;;;;;5054131;28;19920;-79
2024/01/10 03:39:45;;;;;;;;;;;-2.10;99.90;;;;;;5071590;28;19912;-78
2024/01/10 03:42:13;;;;;;;;;;;-2.00;99.90;;;;;;5071828;28;19912;-79
2024/01/10 03:44:38;;;;;;;;;;;-2.20;99.90;;;;;;5071518;28;19912;-78
2024/01/10 03:47:04;;;;;;;;;;;-2.20;99.90;;;;;;5069066;28;19912;-79
2024/01/10 03:49:32;;;;;;;;;;;-2.00;99.90;;;;;;5070073;28;20513;-79
2024/01/10 03:51:58;;;;;;;;;;;-2.00;99.90;;;;;;5069949;28;20441;-78
2024/01/10 03:54:23;;;;;;;;;;;-1.90;99.90;;;;;;5071462;28;19924;-78
2024/01/10 03:56:49;;;;;;;;;;;-2.00;99.90;;;;;;5071641;28;19920;-79
2024/01/10 03:59:14;;;;;;;;;;;-2.00;99.90;;;;;;5070084;28;19912;-78
2024/01/10 04:01:40;;;;;;;;;;;-2.00;99.90;;;;;;5067123;28;20353;-79
2024/01/10 04:04:06;;;;;;;;;;;-2.00;99.90;;;;;;5068023;28;20012;-79
2024/01/10 04:06:31;;;;;;;;;;;-1.90;99.90;;;;;;5067099;28;19912;-79
2024/01/10 04:08:57;;;;;;;;;;;-1.90;99.90;;;;;;5070325;28;19924;-79
2024/01/10 04:11:22;;;;;;;;;;;-2.00;99.90;;;;;;5071621;28;19912;-79
2024/01/10 04:13:48;;;;;;;;;;;-1.80;99.90;;;;;;5052923;28;20416;-79
2024/01/10 04:16:13;;;;;;;;;;;-1.80;99.90;;;;;;5070112;28;19974;-79
2024/01/10 04:18:39;;;;;;;;;;;-1.70;99.90;;;;;;5064088;28;19959;-79
2024/01/10 04:21:04;;;;;;;;;;;-1.70;99.90;;;;;;5061333;28;19913;-79
2024/01/10 04:23:30;;;;;;;;;;;-1.80;99.90;;;;;;5068211;28;19920;-79
2024/01/10 04:25:56;;;;;;;;;;;-1.70;99.90;;;;;;5070789;28;19921;-79
2024/01/10 04:28:22;;;;;;;;;;;-1.70;99.90;;;;;;5070370;28;19912;-79
2024/01/10 04:30:47;;;;;;;;;;;-1.60;99.90;;;;;;5070453;28;19914;-79
2024/01/10 04:33:13;;;;;;;;;;;-1.60;99.90;;;;;;5070754;28;19923;-79
2024/01/10 04:35:38;;;;;;;;;;;-1.60;99.90;;;;;;5070811;28;19916;-79
2024/01/10 04:38:03;;;;;;;;;;;-1.70;99.90;;;;;;5071173;28;20002;-79
2024/01/10 04:40:29;;;;;;;;;;;-1.60;99.90;;;;;;5069910;28;19954;-79
2024/01/10 04:42:55;;;;;;;;;;;-1.60;99.90;;;;;;5069425;28;19908;-79
2024/01/10 04:45:20;;;;;;;;;;;-1.60;99.90;;;;;;5068053;28;19909;-79
2024/01/10 04:47:45;;;;;;;;;;;-1.60;99.90;;;;;;5052859;28;19912;-79
2024/01/10 04:50:11;;;;;;;;;;;-1.60;99.90;;;;;;5062129;28;19908;-79
2024/01/10 04:52:36;;;;;;;;;;;-1.50;99.90;;;;;;5064993;28;19951;-79
2024/01/10 04:55:02;;;;;;;;;;;-1.50;99.90;;;;;;5069422;28;19912;-79
2024/01/10 04:57:28;;;;;;;;;;;-1.60;99.90;;;;;;5067707;28;19924;-79
2024/01/10 04:59:53;;;;;;;;;;;-1.70;99.90;;;;;;5052133;28;20018;-79
2024/01/10 05:02:19;;;;;;;;;;;-1.70;99.90;;;;;;5068106;28;19915;-79
2024/01/10 05:04:44;;;;;;;;;;;-1.60;99.90;;;;;;5070023;28;19909;-79
2024/01/10 05:07:10;;;;;;;;;;;-1.60;99.90;;;;;;5069623;28;19913;-79
2024/01/10 05:09:36;;;;;;;;;;;-1.70;99.90;;;;;;5069530;28;19920;-79
2024/01/10 05:12:01;;;;;;;;;;;-1.60;99.90;;;;;;5051833;28;19942;-79
2024/01/10 05:14:27;;;;;;;;;;;-1.50;99.90;;;;;;5069422;28;19916;-79
2024/01/10 05:16:53;;;;;;;;;;;-1.50;99.90;;;;;;5069889;28;20599;-79
2024/01/10 05:19:18;;;;;;;;;;;-1.50;99.90;;;;;;5066934;28;20250;-79
2024/01/10 05:21:44;;;;;;;;;;;-1.40;99.90;;;;;;5050442;28;19915;-78
2024/01/10 05:24:09;;;;;;;;;;;-1.40;99.90;;;;;;5069689;28;19915;-79
2024/01/10 05:26:35;;;;;;;;;;;-1.40;99.90;;;;;;5066517;28;20383;-79
2024/01/10 05:29:01;;;;;;;;;;;-1.40;99.90;;;;;;5061175;28;19908;-79
2024/01/10 05:31:26;;;;;;;;;;;-1.40;99.90;;;;;;5051363;28;19914;-79
2024/01/10 05:33:53;;;;;;;;;;;-1.30;99.90;;;;;;5069305;28;19954;-79
2024/01/10 05:36:22;;;;;;;;;;;-1.30;99.90;;;;;;5067005;28;19920;-79
2024/01/10 05:38:47;;;;;;;;;;;-1.30;99.90;;;;;;5070369;28;20319;-79
2024/01/10 05:41:14;;;;;;;;;;;-1.30;99.90;;;;;;5067917;28;19912;-79
2024/01/10 05:43:39;;;;;;;;;;;-1.30;99.90;;;;;;5069904;28;19919;-79
2024/01/10 05:46:05;;;;;;;;;;;-1.30;99.90;;;;;;5069527;28;19995;-79
2024/01/10 05:48:30;;;;;;;;;;;-1.30;99.90;;;;;;5050818;28;19954;-79
2024/01/10 05:50:57;;;;;;;;;;;-1.30;99.90;;;;;;5069836;28;19908;-79
2024/01/10 05:53:24;;;;;;;;;;;-1.30;99.90;;;;;;5067196;28;20518;-79
2024/01/10 05:55:49;;;;;;;;;;;-1.30;99.90;;;;;;5068274;28;19920;-79
2024/01/10 05:58:14;;;;;;;;;;;-1.50;99.90;;;;;;5068977;28;19958;-79
2024/01/10 06:00:40;;;;;;;;;;;-1.40;99.90;;;;;;5067859;28;19914;-79
2024/01/10 06:03:05;;;;;;;;;;;-1.30;99.90;;;;;;5058853;28;20011;-79
2024/01/10 06:05:31;;;;;;;;;;;-1.30;99.90;;;;;;5067906;28;19917;-79
2024/01/10 06:07:57;;;;;;;;;;;-1.30;99.90;;;;;;5067980;28;19947;-79
2024/01/10 06:10:22;;;;;;;;;;;-1.30;99.90;;;;;;5067313;28;20363;-79
2024/01/10 06:12:48;;;;;;;;;;;-1.20;99.90;;;;;;5061163;28;20364;-79
2024/01/10 06:15:14;;;;;;;;;;;-1.10;99.90;;;;;;5041907;28;20402;-79
2024/01/10 06:17:39;;;;;;;;;;;-1.20;99.90;;;;;;5068639;28;19909;-79
2024/01/10 06:20:06;;;;;;;;;;;-1.20;99.90;;;;;;5065476;28;19912;-79
2024/01/10 06:22:32;;;;;;;;;;;-1.10;99.90;;;;;;5068198;28;19959;-79
2024/01/10 06:24:58;;;;;;;;;;;-1.10;99.90;;;;;;5067154;28;20003;-79
2024/01/10 06:27:23;;;;;;;;;;;-1.10;99.90;;;;;;5051064;28;19913;-79
2024/01/10 06:29:48;;;;;;;;;;;-1.10;99.90;;;;;;5063523;28;19969;-79
2024/01/10 06:32:14;;;;;;;;;;;-1.10;99.90;;;;;;5068163;28;19963;-80
2024/01/10 06:34:40;;;;;;;;;;;-1.20;99.90;;;;;;5063270;28;20016;-79
2024/01/10 06:37:07;;;;;;;;;;;-1.20;99.90;;;;;;5060873;28;19919;-79
2024/01/10 06:39:33;;;;;;;;;;;-1.20;99.90;;;;;;5067838;28;19935;-79
2024/01/10 06:41:58;;;;;;;;;;;-1.20;99.90;;;;;;5050259;28;20459;-79
2024/01/10 06:44:24;;;;;;;;;;;-1.20;99.90;;;;;;5050604;28;19917;-78
2024/01/10 06:46:49;;;;;;;;;;;-1.20;99.90;;;;;;5068522;28;19915;-79
2024/01/10 06:49:15;;;;;;;;;;;-1.20;99.90;;;;;;5066524;28;19908;-79
2024/01/10 06:51:40;;;;;;;;;;;-1.20;99.90;;;;;;5070310;28;19915;-79
2024/01/10 06:54:06;;;;;;;;;;;-1.20;99.90;;;;;;5068375;28;20314;-79
2024/01/10 06:56:32;;;;;;;;;;;-1.20;99.90;;;;;;5071552;28;19916;-79
2024/01/10 06:58:58;;;;;;;;;;;-1.30;99.90;;;;;;5072930;28;19954;-79
2024/01/10 07:01:23;;;;;;;;;;;-1.20;99.90;;;;;;5053470;28;19958;-79
2024/01/10 07:03:49;;;;;;;;;;;-1.10;99.90;;;;;;5067697;28;19990;-79
2024/01/10 07:06:14;;;;;;;;;;;-1.10;99.90;;;;;;5072257;28;19908;-79
2024/01/10 07:08:40;;;;;;;;;;;-1.20;99.90;;;;;;5071813;28;19920;-79
2024/01/10 07:11:06;;;;;;;;;;;-1.20;99.90;;;;;;5070155;28;19952;-79
2024/01/10 07:13:31;;;;;;;;;;;-1.20;99.90;;;;;;5071740;28;19935;-79
2024/01/10 07:15:57;;;;;;;;;;;-1.10;99.90;;;;;;5071095;28;19916;-79
2024/01/10 07:18:22;;;;;;;;;;;-1.10;99.90;;;;;;5072589;28;19908;-79
2024/01/10 07:20:48;;;;;;;;;;;-1.10;99.90;;;;;;5071819;28;19913;-79
2024/01/10 07:23:13;;;;;;;;;;;-1.10;99.90;;;;;;5071478;28;19915;-78
2024/01/10 07:25:38;;;;;;;;;;;-1.10;99.90;;;;;;5071832;28;20518;-78
2024/01/10 07:28:04;;;;;;;;;;;-1.10;99.90;;;;;;5071776;28;19908;-78
2024/01/10 07:30:32;;;;;;;;;;;-1.20;99.90;;;;;;5052012;28;19908;-78
2024/01/10 07:32:59;;;;;;;;;;;-1.20;99.90;;;;;;5053800;28;19938;-77
2024/01/10 07:35:25;;;;;;;;;;;-1.10;99.90;;;;;;5071269;28;19959;-78
2024/01/10 07:37:51;;;;;;;;;;;-1.10;99.90;;;;;;5071774;28;19959;-78
2024/01/10 07:40:16;;;;;;;;;;;-1.10;99.90;;;;;;5071092;28;19950;-78
2024/01/10 07:42:42;;;;;;;;;;;-1.10;99.90;;;;;;5069999;28;19908;-78
2024/01/10 07:45:08;;;;;;;;;;;-1.10;99.90;;;;;;5062024;28;19908;-78
2024/01/10 07:47:37;;;;;;;;;;;-1.10;99.90;;;;;;5048160;28;19995;-78
2024/01/10 07:50:06;;;;;;;;;;;-1.20;99.90;;;;;;5068165;28;19962;-78
2024/01/10 07:52:32;;;;;;;;;;;-1.10;99.90;;;;;;5068087;28;19935;-79
2024/01/10 07:54:57;;;;;;;;;;;-1.10;99.90;;;;;;5069597;28;19917;-78
2024/01/10 07:57:23;;;;;;;;;;;-1.00;99.90;;;;;;5051238;28;19974;-78
2024/01/10 07:59:48;;;;;;;;;;;-1.00;99.90;;;;;;5068229;28;19912;-78
2024/01/10 08:02:14;;;;;;;;;;;-1.00;99.90;;;;;;5050411;28;19916;-78
2024/01/10 08:04:39;;;;;;;;;;;-1.10;99.90;;;;;;5060143;28;19919;-77
2024/01/10 08:07:05;;;;;;;;;;;-1.00;99.90;;;;;;5046926;28;19904;-78
2024/01/10 08:09:30;;;;;;;;;;;-1.00;99.90;;;;;;5062435;28;20289;-78
2024/01/10 08:11:56;;;;;;;;;;;-1.00;99.90;;;;;;5054121;28;19957;-78
2024/01/10 08:14:21;;;;;;;;;;;-1.00;99.90;;;;;;5051110;28;19912;-78
2024/01/10 08:16:46;;;;;;;;;;;-0.90;99.90;;;;;;5051744;28;19923;-79
2024/01/10 08:19:12;;;;;;;;;;;-0.90;99.90;;;;;;5040518;28;19908;-78
2024/01/10 08:21:38;;;;;;;;;;;-1.00;99.90;;;;;;5064493;28;20541;-78
2024/01/10 08:24:05;;;;;;;;;;;-0.90;99.90;;;;;;5070007;28;20002;-78
2024/01/10 08:26:30;;;;;;;;;;;-0.90;99.90;;;;;;5071156;28;19916;-78
2024/01/10 08:28:56;;;;;;;;;;;-1.00;99.90;;;;;;5070197;28;20352;-78
2024/01/10 08:31:22;;;;;;;;;;;-1.00;99.90;;;;;;5070048;28;19954;-78
2024/01/10 08:33:48;;;;;;;;;;;-1.00;99.90;;;;;;5068351;28;19927;-78
2024/01/10 08:36:15;;;;;;;;;;;-0.90;99.90;;;;;;5066770;28;19924;-78
2024/01/10 08:38:41;;;;;;;;;;;-0.90;99.90;;;;;;5043152;28;20050;-78
2024/01/10 08:41:11;;;;;;;;;;;-0.90;99.90;;;;;;5067039;28;20032;-78
2024/01/10 08:43:37;;;;;;;;;;;-0.80;99.90;;;;;;5068404;28;19909;-78
2024/01/10 08:46:02;;;;;;;;;;;-0.80;99.90;;;;;;5067378;28;19915;-79
2024/01/10 08:48:28;;;;;;;;;;;-0.80;99.90;;;;;;5070605;28;20374;-79
2024/01/10 08:50:55;;;;;;;;;;;-0.80;99.90;;;;;;5069260;28;20013;-79
2024/01/10 08:53:21;;;;;;;;;;;-0.80;99.90;;;;;;5070261;28;19994;-79
2024/01/10 08:55:47;;;;;;;;;;;-0.80;99.90;;;;;;5067885;28;20515;-79
2024/01/10 08:58:12;;;;;;;;;;;-0.70;99.90;;;;;;5069146;28;19912;-79
2024/01/10 09:00:38;;;;;;;;;;;-0.70;99.90;;;;;;5066922;28;19912;-78
2024/01/10 09:03:04;;;;;;;;;;;-0.70;99.90;;;;;;5060454;28;19912;-78
2024/01/10 09:05:29;;;;;;;;;;;-0.70;99.90;;;;;;5061820;28;20007;-81
2024/01/10 09:07:54;;;;;;;;;;;-0.70;99.90;;;;;;5070441;28;20356;-79
2024/01/10 09:10:22;;;;;;;;;;;-0.70;99.90;;;;;;5068370;28;20365;-80
2024/01/10 09:12:48;;;;;;;;;;;-0.60;99.90;;;;;;5058306;28;20004;-80
2024/01/10 09:15:14;;;;;;;;;;;-0.60;99.90;;;;;;5064952;28;20015;-80
2024/01/10 09:17:41;;;;;;;;;;;-0.60;99.90;;;;;;5067208;28;19916;-80
2024/01/10 09:20:06;;;;;;;;;;;-0.60;99.90;;;;;;5059393;28;20353;-80
2024/01/10 09:22:32;;;;;;;;;;;-0.70;99.90;;;;;;5059432;28;19951;-81
2024/01/10 09:25:03;;;;;;;;;;;-0.90;99.90;;;;;;5039615;28;19943;-77
2024/01/10 09:27:29;;;;;;;;;;;-0.90;99.90;;;;;;5061470;28;19920;-84
2024/01/10 09:29:55;;;;;;;;;;;-0.90;99.90;;;;;;5059146;28;19908;-81
2024/01/10 09:32:20;;;;;;;;;;;-0.70;99.90;;;;;;5059713;28;19908;-82
2024/01/10 09:34:46;;;;;;;;;;;-0.80;99.90;;;;;;5059009;28;19923;-82
2024/01/10 09:37:11;;;;;;;;;;;-0.80;99.90;;;;;;5038204;28;20317;-76
2024/01/10 09:39:36;;;;;;;;;;;-0.70;99.90;;;;;;5063503;28;20335;-80
2024/01/10 09:42:02;;;;;;;;;;;-0.80;99.90;;;;;;5066730;28;19908;-80
2024/01/10 09:44:29;;;;;;;;;;;-0.70;99.90;;;;;;5063403;28;20378;-81
2024/01/10 09:46:54;;;;;;;;;;;-0.70;99.90;;;;;;5051676;28;19916;-81
2024/01/10 09:49:24;;;;;;;;;;;-0.70;99.90;;;;;;5068256;28;19919;-81
2024/01/10 09:51:50;;;;;;;;;;;-0.50;99.90;;;;;;5050794;28;19940;-81
2024/01/10 09:54:16;;;;;;;;;;;-0.60;99.90;;;;;;5069491;28;19908;-81
2024/01/10 09:56:42;;;;;;;;;;;-0.70;99.90;;;;;;5044622;28;20006;-82
2024/01/10 09:59:10;;;;;;;;;;;-0.80;99.90;;;;;;5065915;28;19908;-81
2024/01/10 10:01:39;;;;;;;;;;;-0.90;99.90;;;;;;5068732;28;20314;-79
2024/01/10 10:04:05;;;;;;;;;;;-0.80;99.90;;;;;;5047538;28;19919;-80
2024/01/10 10:06:31;;;;;;;;;;;-0.70;99.90;;;;;;5069500;28;19909;-80
2024/01/10 10:08:56;;;;;;;;;;;-0.60;99.90;;;;;;5060924;28;19973;-80
2024/01/10 10:11:22;;;;;;;;;;;-0.40;99.90;;;;;;5067885;28;20356;-80
2024/01/10 10:13:47;;;;;;;;;;;-0.50;99.90;;;;;;5049500;28;19915;-80
2024/01/10 10:16:12;;;;;;;;;;;-0.50;99.90;;;;;;5068003;28;19920;-80
2024/01/10 10:18:39;;;;;;;;;;;-0.50;99.90;;;;;;5065946;28;19916;-80
2024/01/10 10:21:11;;;;;;;;;;;-0.40;99.90;;;;;;5048005;28;19912;-81
2024/01/10 10:23:37;;;;;;;;;;;-0.30;99.90;;;;;;5034734;28;19909;-80
2024/01/10 10:26:18;;;;;;;;;;;-0.40;99.90;;;;;;5067772;28;19924;-80
2024/01/10 10:28:44;;;;;;;;;;;-0.30;99.90;;;;;;5072785;28;19966;-81
2024/01/10 10:31:09;;;;;;;;;;;-0.20;99.90;;;;;;5070774;28;19956;-79
2024/01/10 10:33:35;;;;;;;;;;;-0.40;99.90;;;;;;5070834;28;19924;-80
2024/01/10 10:36:01;;;;;;;;;;;-0.30;99.90;;;;;;5071790;28;20401;-81
2024/01/10 10:38:26;;;;;;;;;;;-0.20;99.90;;;;;;5072106;28;19975;-81
2024/01/10 10:40:52;;;;;;;;;;;-0.30;99.90;;;;;;5073044;28;20293;-80
2024/01/10 10:43:19;;;;;;;;;;;-0.20;99.90;;;;;;5072577;28;20363;-81
2024/01/10 10:45:47;;;;;;;;;;;-0.30;99.90;;;;;;5069144;28;19912;-80
2024/01/10 10:48:16;;;;;;;;;;;-0.40;99.90;;;;;;5065243;28;19912;-80
2024/01/10 10:50:42;;;;;;;;;;;-0.50;99.90;;;;;;5072035;28;19947;-81
2024/01/10 10:53:08;;;;;;;;;;;-0.30;99.90;;;;;;5072211;28;19918;-80
2024/01/10 10:55:34;;;;;;;;;;;-0.20;99.90;;;;;;5066946;28;20720;-81
2024/01/10 10:58:01;;;;;;;;;;;-0.10;99.90;;;;;;5063213;28;20369;-81
2024/01/10 11:00:27;;;;;;;;;;;-0.20;99.90;;;;;;5067564;28;20379;-81
2024/01/10 11:02:53;;;;;;;;;;;-0.10;99.90;;;;;;5054142;28;19908;-80
2024/01/10 11:05:19;;;;;;;;;;;-0.10;99.90;;;;;;5072382;28;19917;-81
2024/01/10 11:07:45;;;;;;;;;;;-0.20;99.90;;;;;;5071605;28;19998;-80
2024/01/10 11:10:21;;;;;;;;;;;-0.20;99.90;;;;;;5070186;28;20027;-80
2024/01/10 11:12:56;;;;;;;;;;;-0.30;99.90;;;;;;5070945;28;19912;-80
2024/01/10 11:15:35;;;;;;;;;;;-0.10;99.90;;;;;;5068664;28;19924;-80
2024/01/10 11:18:16;;;;;;;;;;;0.00;99.90;;;;;;5072606;28;19986;-81
2024/01/10 11:21:10;;;;;;;;;;;0.00;99.90;;;;;;5072522;28;19943;-81
2024/01/10 11:23:42;;;;;;;;;;;0.10;99.90;;;;;;5071660;28;19908;-81
2024/01/10 11:26:08;;;;;;;;;;;0.00;99.90;;;;;;5070756;28;19915;-81
2024/01/10 11:28:35;;;;;;;;;;;0.00;99.90;;;;;;5071558;28;20489;-79
2024/01/10 11:31:01;;;;;;;;;;;0.10;99.90;;;;;;5069415;28;19936;-79
2024/01/10 11:33:43;;;;;;;;;;;0.10;99.90;;;;;;5071104;28;19955;-79
2024/01/10 11:36:15;;;;;;;;;;;0.10;99.90;;;;;;5070517;28;20541;-79
2024/01/10 11:38:54;;;;;;;;;;;0.10;99.90;;;;;;5070134;28;19962;-79
2024/01/10 11:41:24;;;;;;;;;;;0.10;99.90;;;;;;5065958;28;19908;-79
2024/01/10 11:44:08;;;;;;;;;;;0.10;99.90;;;;;;5067338;28;19988;-79
2024/01/10 11:46:34;;;;;;;;;;;0.10;99.90;;;;;;5069076;28;20372;-79
2024/01/10 11:49:00;;;;;;;;;;;0.00;99.90;;;;;;5071323;28;19927;-79
2024/01/10 11:51:25;;;;;;;;;;;0.20;99.90;;;;;;5071593;28;19959;-79
2024/01/10 11:53:52;;;;;;;;;;;0.30;99.90;;;;;;5071440;28;19915;-79
2024/01/10 11:56:18;;;;;;;;;;;0.20;99.90;;;;;;5071251;28;19931;-80
2024/01/10 11:58:52;;;;;;;;;;;0.20;99.90;;;;;;5070837;28;20343;-79
2024/01/10 12:01:18;;;;;;;;;;;0.20;99.90;;;;;;5064767;28;19951;-79
2024/01/10 12:03:44;;;;;;;;;;;0.30;99.90;;;;;;5065450;28;19998;-79
2024/01/10 12:06:09;;;;;;;;;;;0.30;99.90;;;;;;5066626;28;19927;-78
2024/01/10 12:08:35;;;;;;;;;;;0.40;99.90;;;;;;5070873;28;19917;-79
2024/01/10 12:11:01;;;;;;;;;;;0.40;99.90;;;;;;5067178;28;19917;-80
2024/01/10 12:13:27;;;;;;;;;;;0.50;99.90;;;;;;5064922;28;20361;-79
2024/01/10 12:15:52;;;;;;;;;;;0.50;99.90;;;;;;5070441;28;20416;-79
2024/01/10 12:18:17;;;;;;;;;;;0.30;99.90;;;;;;5071264;28;19974;-80
2024/01/10 12:20:45;;;;;;;;;;;0.30;99.90;;;;;;5068398;28;19918;-80
2024/01/10 12:23:11;;;;;;;;;;;0.30;99.90;;;;;;5070922;28;20024;-79
2024/01/10 12:25:36;;;;;;;;;;;0.40;99.90;;;;;;5070762;28;19909;-79
2024/01/10 12:28:02;;;;;;;;;;;0.50;99.90;;;;;;5071251;28;20276;-78
2024/01/10 12:30:28;;;;;;;;;;;0.50;99.90;;;;;;5070949;28;19912;-79
2024/01/10 12:32:54;;;;;;;;;;;0.50;99.90;;;;;;5070686;28;19919;-79
2024/01/10 12:35:22;;;;;;;;;;;0.60;99.90;;;;;;5064715;28;19912;-78
2024/01/10 12:37:55;;;;;;;;;;;0.40;99.90;;;;;;5070728;28;19909;-78
2024/01/10 12:40:21;;;;;;;;;;;0.40;99.90;;;;;;5071352;28;19962;-79
2024/01/10 12:42:46;;;;;;;;;;;0.50;99.90;;;;;;5052935;28;20280;-79
2024/01/10 12:45:21;;;;;;;;;;;0.50;99.90;;;;;;5070370;28;19916;-79
2024/01/10 12:47:47;;;;;;;;;;;0.50;99.90;;;;;;5069825;28;19904;-78
2024/01/10 12:50:13;;;;;;;;;;;0.50;99.90;;;;;;5070208;28;19959;-78
2024/01/10 12:52:42;;;;;;;;;;;0.60;99.90;;;;;;5071094;28;19969;-79
2024/01/10 12:55:08;;;;;;;;;;;0.60;99.90;;;;;;5070807;28;19904;-79
2024/01/10 12:57:33;;;;;;;;;;;0.60;99.90;;;;;;5068703;28;20007;-78
2024/01/10 12:59:59;;;;;;;;;;;0.60;99.90;;;;;;5063408;28;19908;-79
2024/01/10 13:02:24;;;;;;;;;;;0.60;99.90;;;;;;5070121;28;19959;-79
2024/01/10 13:04:50;;;;;;;;;;;0.50;99.90;;;;;;5068509;28;19947;-79
2024/01/10 13:07:15;;;;;;;;;;;0.50;99.90;;;;;;5069987;28;20375;-79
2024/01/10 13:09:41;;;;;;;;;;;0.50;99.90;;;;;;5069947;28;19920;-79
2024/01/10 13:12:08;;;;;;;;;;;0.50;99.90;;;;;;5070574;28;19985;-79
2024/01/10 13:14:33;;;;;;;;;;;0.50;99.90;;;;;;5069846;28;19919;-79
2024/01/10 13:16:59;;;;;;;;;;;0.40;99.90;;;;;;5069800;28;19921;-79
2024/01/10 13:19:26;;;;;;;;;;;0.50;99.90;;;;;;5061176;28;19917;-80
2024/01/10 13:21:53;;;;;;;;;;;0.50;99.90;;;;;;5038939;28;20262;-80
2024/01/10 13:24:19;;;;;;;;;;;0.50;99.90;;;;;;5070614;28;20308;-79
2024/01/10 13:26:44;;;;;;;;;;;0.50;99.90;;;;;;5070115;28;19923;-80
2024/01/10 13:29:10;;;;;;;;;;;0.50;99.90;;;;;;5068565;28;19920;-79
2024/01/10 13:31:36;;;;;;;;;;;0.50;99.90;;;;;;5068201;28;19931;-80
2024/01/10 13:34:03;;;;;;;;;;;0.50;99.90;;;;;;5070742;28;20260;-80
2024/01/10 13:36:30;;;;;;;;;;;0.50;99.90;;;;;;5071043;28;19931;-78
2024/01/10 13:38:55;;;;;;;;;;;0.40;99.90;;;;;;5069945;28;19912;-79
2024/01/10 13:41:21;;;;;;;;;;;0.50;99.90;;;;;;5069951;28;19991;-78
2024/01/10 13:43:46;;;;;;;;;;;0.50;99.90;;;;;;5069267;28;19908;-78
2024/01/10 13:46:12;;;;;;;;;;;0.50;99.90;;;;;;5061593;28;19940;-78
2024/01/10 13:48:38;;;;;;;;;;;0.50;99.90;;;;;;5048864;28;19904;-78
2024/01/10 13:51:04;;;;;;;;;;;0.50;99.90;;;;;;5055757;28;19950;-78
2024/01/10 13:53:30;;;;;;;;;;;0.50;99.90;;;;;;5064075;28;19909;-78
2024/01/10 13:55:55;;;;;;;;;;;0.50;99.90;;;;;;5065428;28;19962;-78
2024/01/10 13:58:23;;;;;;;;;;;0.60;99.90;;;;;;5074143;28;19966;-78
2024/01/10 14:00:49;;;;;;;;;;;0.60;99.90;;;;;;5066771;28;19912;-78
2024/01/10 14:03:15;;;;;;;;;;;0.50;99.90;;;;;;5063004;28;19923;-78
2024/01/10 14:05:40;;;;;;;;;;;0.60;99.90;;;;;;5060307;28;19944;-78
2024/01/10 14:08:06;;;;;;;;;;;0.50;99.90;;;;;;5073278;28;19967;-78
2024/01/10 14:10:32;;;;;;;;;;;0.50;99.90;;;;;;5072688;28;19916;-79
2024/01/10 14:12:57;;;;;;;;;;;0.40;99.90;;;;;;5054837;28;19909;-78
2024/01/10 14:15:23;;;;;;;;;;;0.50;99.90;;;;;;5072075;28;20360;-79
2024/01/10 14:17:49;;;;;;;;;;;0.50;99.90;;;;;;5073496;28;20607;-78
2024/01/10 14:20:14;;;;;;;;;;;0.50;99.90;;;;;;5072311;28;20454;-79